sensor_id;sensor_type;location;lat;lon;timestamp;pressure;altitude;pressure_sealevel;temperature;humidity
31082;BME280;17737;52.586;13.284;2023-09-19T00:01:04;100190.41;;;18.77;100.00
31082;BME280;17737;52.586;13.284;2023-09-19T00:03:34;100191.03;;;18.79;100.00
31082;BME280;17737;52.586;13.284;2023-09-19T00:06:04;100189.59;;;18.77;100.00
31082;BME280;17737;52.586;13.284;2023-09-19T00:08:34;100194.31;;;18.81;100.00
31082;BME280;17737;52.586;13.284;2023-09-19T00:11:02;100194.13;;;18.83;100.00
31082;BME280;17737;52.586;13.284;2023-09-19T00:13:30;100191.09;;;18.73;100.00
31082;BME280;17737;52.586;13.284;2023-09-19T00:15:58;100180.78;;;18.75;100.00
31082;BME280;17737;52.586;13.284;2023-09-19T00:18:28;100181.16;;;18.78;100.00
31082;BME280;17737;52.586;13.284;2023-09-19T00:20:59;100181.50;;;18.70;100.00
31082;BME280;17737;52.586;13.284;2023-09-19T00:23:27;100180.16;;;18.61;100.00
31082;BME280;17737;52.586;13.284;2023-09-19T00:25:58;100177.22;;;18.63;100.00
31082;BME280;17737;52.586;13.284;2023-09-19T00:28:27;100176.03;;;18.59;100.00
31082;BME280;17737;52.586;13.284;2023-09-19T00:30:56;100176.94;;;18.53;100.00
31082;BME280;17737;52.586;13.284;2023-09-19T00:33:29;100172.22;;;18.60;100.00
31082;BME280;17737;52.586;13.284;2023-09-19T00:35:57;100174.22;;;18.53;100.00
31082;BME280;17737;52.586;13.284;2023-09-19T00:38:26;100175.63;;;18.44;100.00
31082;BME280;17737;52.586;13.284;2023-09-19T00:40:54;100178.38;;;18.44;100.00
31082;BME280;17737;52.586;13.284;2023-09-19T00:43:26;100178.88;;;18.52;100.00
31082;BME280;17737;52.586;13.284;2023-09-19T00:45:56;100179.06;;;18.51;100.00
31082;BME280;17737;52.586;13.284;2023-09-19T00:48:29;100181.13;;;18.55;100.00
31082;BME280;17737;52.586;13.284;2023-09-19T00:51:02;100180.75;;;18.52;100.00
31082;BME280;17737;52.586;13.284;2023-09-19T00:53:32;100179.81;;;18.58;100.00
31082;BME280;17737;52.586;13.284;2023-09-19T00:56:02;100179.56;;;18.59;100.00
31082;BME280;17737;52.586;13.284;2023-09-19T00:58:31;100175.31;;;18.52;100.00
31082;BME280;17737;52.586;13.284;2023-09-19T01:01:02;100176.47;;;18.56;100.00
31082;BME280;17737;52.586;13.284;2023-09-19T01:03:34;100180.28;;;18.55;100.00
31082;BME280;17737;52.586;13.284;2023-09-19T01:06:04;100185.47;;;18.45;100.00
31082;BME280;17737;52.586;13.284;2023-09-19T01:08:34;100186.75;;;18.42;100.00
31082;BME280;17737;52.586;13.284;2023-09-19T01:11:09;100179.69;;;18.53;100.00
31082;BME280;17737;52.586;13.284;2023-09-19T01:13:51;100184.94;;;18.66;100.00
31082;BME280;17737;52.586;13.284;2023-09-19T01:16:33;100175.09;;;18.65;100.00
31082;BME280;17737;52.586;13.284;2023-09-19T01:19:30;100187.75;;;18.59;100.00
31082;BME280;17737;52.586;13.284;2023-09-19T01:22:32;100179.38;;;18.72;100.00
31082;BME280;17737;52.586;13.284;2023-09-19T01:25:44;100183.75;;;18.73;100.00
31082;BME280;17737;52.586;13.284;2023-09-19T01:28:34;100185.09;;;18.82;100.00
31082;BME280;17737;52.586;13.284;2023-09-19T01:31:16;100187.34;;;18.85;100.00
31082;BME280;17737;52.586;13.284;2023-09-19T01:33:56;100193.97;;;18.78;100.00
31082;BME280;17737;52.586;13.284;2023-09-19T01:36:30;100199.41;;;18.78;100.00
31082;BME280;17737;52.586;13.284;2023-09-19T01:39:04;100196.56;;;18.73;100.00
31082;BME280;17737;52.586;13.284;2023-09-19T01:41:52;100196.34;;;18.74;100.00
31082;BME280;17737;52.586;13.284;2023-09-19T01:44:34;100197.03;;;18.70;100.00
31082;BME280;17737;52.586;13.284;2023-09-19T01:47:19;100203.81;;;18.67;100.00
31082;BME280;17737;52.586;13.284;2023-09-19T01:49:59;100191.22;;;18.66;100.00
31082;BME280;17737;52.586;13.284;2023-09-19T01:52:42;100181.28;;;18.72;100.00
31082;BME280;17737;52.586;13.284;2023-09-19T01:55:16;100186.00;;;18.65;100.00
31082;BME280;17737;52.586;13.284;2023-09-19T01:57:51;100185.63;;;18.61;100.00
31082;BME280;17737;52.586;13.284;2023-09-19T02:00:26;100199.63;;;18.53;100.00
31082;BME280;17737;52.586;13.284;2023-09-19T02:02:59;100201.63;;;18.58;100.00
31082;BME280;17737;52.586;13.284;2023-09-19T02:05:28;100202.84;;;18.62;100.00
31082;BME280;17737;52.586;13.284;2023-09-19T02:07:57;100211.38;;;18.54;100.00
31082;BME280;17737;52.586;13.284;2023-09-19T02:10:25;100215.28;;;18.58;100.00
31082;BME280;17737;52.586;13.284;2023-09-19T02:12:53;100213.03;;;18.55;100.00
31082;BME280;17737;52.586;13.284;2023-09-19T02:15:21;100213.16;;;18.60;100.00
31082;BME280;17737;52.586;13.284;2023-09-19T02:17:49;100217.19;;;18.57;100.00
31082;BME280;17737;52.586;13.284;2023-09-19T02:20:19;100217.88;;;18.53;100.00
31082;BME280;17737;52.586;13.284;2023-09-19T02:22:47;100214.91;;;18.54;100.00
31082;BME280;17737;52.586;13.284;2023-09-19T02:25:16;100211.44;;;18.47;100.00
31082;BME280;17737;52.586;13.284;2023-09-19T02:27:46;100216.81;;;18.54;100.00
31082;BME280;17737;52.586;13.284;2023-09-19T02:30:14;100223.19;;;18.48;100.00
31082;BME280;17737;52.586;13.284;2023-09-19T02:32:42;100231.25;;;18.43;100.00
31082;BME280;17737;52.586;13.284;2023-09-19T02:35:11;100230.84;;;18.39;100.00
31082;BME280;17737;52.586;13.284;2023-09-19T02:37:42;100237.16;;;18.40;100.00
31082;BME280;17737;52.586;13.284;2023-09-19T02:40:11;100234.28;;;18.35;100.00
31082;BME280;17737;52.586;13.284;2023-09-19T02:42:47;100244.44;;;18.28;100.00
31082;BME280;17737;52.586;13.284;2023-09-19T02:45:16;100238.84;;;18.23;100.00
31082;BME280;17737;52.586;13.284;2023-09-19T02:47:47;100236.56;;;18.20;100.00
31082;BME280;17737;52.586;13.284;2023-09-19T02:50:16;100240.72;;;18.22;100.00
31082;BME280;17737;52.586;13.284;2023-09-19T02:52:46;100245.81;;;18.19;100.00
31082;BME280;17737;52.586;13.284;2023-09-19T02:55:17;100244.38;;;18.16;100.00
31082;BME280;17737;52.586;13.284;2023-09-19T02:57:47;100237.84;;;18.17;100.00
31082;BME280;17737;52.586;13.284;2023-09-19T03:00:17;100251.25;;;18.19;100.00
31082;BME280;17737;52.586;13.284;2023-09-19T03:02:48;100252.47;;;18.23;100.00
31082;BME280;17737;52.586;13.284;2023-09-19T03:05:16;100260.75;;;18.16;100.00
31082;BME280;17737;52.586;13.284;2023-09-19T03:07:46;100252.34;;;18.18;100.00
31082;BME280;17737;52.586;13.284;2023-09-19T03:10:17;100248.00;;;18.10;100.00
31082;BME280;17737;52.586;13.284;2023-09-19T03:12:46;100257.72;;;18.06;100.00
31082;BME280;17737;52.586;13.284;2023-09-19T03:15:15;100257.72;;;18.06;100.00
31082;BME280;17737;52.586;13.284;2023-09-19T03:17:44;100253.31;;;18.05;100.00
31082;BME280;17737;52.586;13.284;2023-09-19T03:20:14;100258.63;;;18.18;100.00
31082;BME280;17737;52.586;13.284;2023-09-19T03:22:44;100256.19;;;18.28;100.00
31082;BME280;17737;52.586;13.284;2023-09-19T03:25:14;100266.00;;;18.29;100.00
31082;BME280;17737;52.586;13.284;2023-09-19T03:27:44;100268.03;;;18.34;100.00
31082;BME280;17737;52.586;13.284;2023-09-19T03:30:12;100277.41;;;18.26;100.00
31082;BME280;17737;52.586;13.284;2023-09-19T03:32:44;100268.38;;;18.26;100.00
31082;BME280;17737;52.586;13.284;2023-09-19T03:35:14;100272.63;;;18.22;100.00
31082;BME280;17737;52.586;13.284;2023-09-19T03:37:43;100274.47;;;18.10;100.00
31082;BME280;17737;52.586;13.284;2023-09-19T03:40:12;100280.19;;;18.02;100.00
31082;BME280;17737;52.586;13.284;2023-09-19T03:42:43;100282.16;;;17.94;100.00
31082;BME280;17737;52.586;13.284;2023-09-19T03:45:11;100285.34;;;17.91;100.00
31082;BME280;17737;52.586;13.284;2023-09-19T03:47:40;100287.53;;;17.83;100.00
31082;BME280;17737;52.586;13.284;2023-09-19T03:50:09;100289.66;;;17.81;100.00
31082;BME280;17737;52.586;13.284;2023-09-19T03:52:39;100284.28;;;17.74;100.00
31082;BME280;17737;52.586;13.284;2023-09-19T03:55:07;100294.13;;;17.75;100.00
31082;BME280;17737;52.586;13.284;2023-09-19T03:57:37;100291.19;;;17.77;100.00
31082;BME280;17737;52.586;13.284;2023-09-19T04:00:07;100289.56;;;17.69;100.00
31082;BME280;17737;52.586;13.284;2023-09-19T04:02:39;100290.50;;;17.63;100.00
31082;BME280;17737;52.586;13.284;2023-09-19T04:05:08;100291.38;;;17.57;100.00
31082;BME280;17737;52.586;13.284;2023-09-19T04:07:37;100295.78;;;17.58;100.00
31082;BME280;17737;52.586;13.284;2023-09-19T04:10:06;100294.09;;;17.57;100.00
31082;BME280;17737;52.586;13.284;2023-09-19T04:12:39;100288.94;;;17.49;100.00
31082;BME280;17737;52.586;13.284;2023-09-19T04:15:07;100299.84;;;17.49;100.00
31082;BME280;17737;52.586;13.284;2023-09-19T04:17:39;100301.53;;;17.44;100.00
31082;BME280;17737;52.586;13.284;2023-09-19T04:20:09;100300.72;;;17.43;100.00
31082;BME280;17737;52.586;13.284;2023-09-19T04:22:38;100304.47;;;17.42;100.00
31082;BME280;17737;52.586;13.284;2023-09-19T04:25:07;100303.25;;;17.38;100.00
31082;BME280;17737;52.586;13.284;2023-09-19T04:27:35;100309.75;;;17.37;100.00
31082;BME280;17737;52.586;13.284;2023-09-19T04:30:07;100320.50;;;17.32;100.00
31082;BME280;17737;52.586;13.284;2023-09-19T04:32:38;100315.66;;;17.34;100.00
31082;BME280;17737;52.586;13.284;2023-09-19T04:35:08;100311.69;;;17.30;100.00
31082;BME280;17737;52.586;13.284;2023-09-19T04:37:37;100321.00;;;17.23;100.00
31082;BME280;17737;52.586;13.284;2023-09-19T04:40:07;100318.31;;;17.16;100.00
31082;BME280;17737;52.586;13.284;2023-09-19T04:42:39;100316.66;;;17.15;100.00
31082;BME280;17737;52.586;13.284;2023-09-19T04:45:10;100319.38;;;17.15;100.00
31082;BME280;17737;52.586;13.284;2023-09-19T04:47:38;100330.09;;;17.10;100.00
31082;BME280;17737;52.586;13.284;2023-09-19T04:50:08;100328.84;;;17.06;100.00
31082;BME280;17737;52.586;13.284;2023-09-19T04:52:41;100332.81;;;17.10;100.00
31082;BME280;17737;52.586;13.284;2023-09-19T04:55:11;100333.59;;;17.17;100.00
31082;BME280;17737;52.586;13.284;2023-09-19T04:57:44;100337.25;;;17.05;100.00
31082;BME280;17737;52.586;13.284;2023-09-19T05:00:15;100341.25;;;17.02;100.00
31082;BME280;17737;52.586;13.284;2023-09-19T05:02:48;100342.47;;;17.06;100.00
31082;BME280;17737;52.586;13.284;2023-09-19T05:05:18;100341.06;;;16.97;100.00
31082;BME280;17737;52.586;13.284;2023-09-19T05:07:46;100347.94;;;17.00;100.00
31082;BME280;17737;52.586;13.284;2023-09-19T05:10:14;100344.38;;;17.06;100.00
31082;BME280;17737;52.586;13.284;2023-09-19T05:12:45;100353.78;;;17.03;100.00
31082;BME280;17737;52.586;13.284;2023-09-19T05:15:16;100353.41;;;17.00;100.00
31082;BME280;17737;52.586;13.284;2023-09-19T05:17:47;100357.81;;;17.01;100.00
31082;BME280;17737;52.586;13.284;2023-09-19T05:20:20;100360.47;;;17.07;100.00
31082;BME280;17737;52.586;13.284;2023-09-19T05:22:59;100364.63;;;17.10;100.00
31082;BME280;17737;52.586;13.284;2023-09-19T05:25:35;100365.97;;;17.01;100.00
31082;BME280;17737;52.586;13.284;2023-09-19T05:28:06;100372.22;;;17.01;100.00
31082;BME280;17737;52.586;13.284;2023-09-19T05:30:36;100372.97;;;17.15;100.00
31082;BME280;17737;52.586;13.284;2023-09-19T05:33:06;100377.06;;;17.30;100.00
31082;BME280;17737;52.586;13.284;2023-09-19T05:35:35;100373.78;;;17.22;100.00
31082;BME280;17737;52.586;13.284;2023-09-19T05:38:06;100382.38;;;17.19;100.00
31082;BME280;17737;52.586;13.284;2023-09-19T05:40:35;100388.72;;;17.13;100.00
31082;BME280;17737;52.586;13.284;2023-09-19T05:43:05;100391.78;;;17.23;100.00
31082;BME280;17737;52.586;13.284;2023-09-19T05:45:33;100391.34;;;17.26;100.00
31082;BME280;17737;52.586;13.284;2023-09-19T05:48:09;100393.91;;;17.21;100.00
31082;BME280;17737;52.586;13.284;2023-09-19T05:50:38;100394.28;;;17.24;100.00
31082;BME280;17737;52.586;13.284;2023-09-19T05:53:06;100398.91;;;17.24;100.00
31082;BME280;17737;52.586;13.284;2023-09-19T05:55:34;100405.13;;;17.31;100.00
31082;BME280;17737;52.586;13.284;2023-09-19T05:58:03;100409.72;;;17.30;100.00
31082;BME280;17737;52.586;13.284;2023-09-19T06:00:31;100407.22;;;17.29;100.00
31082;BME280;17737;52.586;13.284;2023-09-19T06:03:01;100420.19;;;17.33;100.00
31082;BME280;17737;52.586;13.284;2023-09-19T06:05:31;100421.03;;;17.34;100.00
31082;BME280;17737;52.586;13.284;2023-09-19T06:07:59;100423.97;;;17.32;100.00
31082;BME280;17737;52.586;13.284;2023-09-19T06:10:28;100430.59;;;17.49;100.00
31082;BME280;17737;52.586;13.284;2023-09-19T06:12:57;100439.38;;;17.51;100.00
31082;BME280;17737;52.586;13.284;2023-09-19T06:15:25;100442.91;;;17.58;100.00
31082;BME280;17737;52.586;13.284;2023-09-19T06:17:54;100444.72;;;17.64;100.00
31082;BME280;17737;52.586;13.284;2023-09-19T06:20:25;100438.78;;;17.74;100.00
31082;BME280;17737;52.586;13.284;2023-09-19T06:22:55;100436.00;;;17.80;100.00
31082;BME280;17737;52.586;13.284;2023-09-19T06:25:23;100437.38;;;17.65;100.00
31082;BME280;17737;52.586;13.284;2023-09-19T06:27:52;100437.88;;;17.80;100.00
31082;BME280;17737;52.586;13.284;2023-09-19T06:30:21;100438.44;;;17.88;100.00
31082;BME280;17737;52.586;13.284;2023-09-19T06:32:55;100442.28;;;18.06;100.00
31082;BME280;17737;52.586;13.284;2023-09-19T06:35:26;100435.66;;;18.20;100.00
31082;BME280;17737;52.586;13.284;2023-09-19T06:37:57;100439.00;;;18.22;100.00
31082;BME280;17737;52.586;13.284;2023-09-19T06:40:26;100436.91;;;18.42;100.00
31082;BME280;17737;52.586;13.284;2023-09-19T06:42:54;100451.84;;;18.57;100.00
31082;BME280;17737;52.586;13.284;2023-09-19T06:45:23;100455.78;;;18.61;100.00
31082;BME280;17737;52.586;13.284;2023-09-19T06:47:54;100444.63;;;18.45;100.00
31082;BME280;17737;52.586;13.284;2023-09-19T06:50:24;100454.03;;;18.49;100.00
31082;BME280;17737;52.586;13.284;2023-09-19T06:52:55;100455.91;;;18.66;100.00
31082;BME280;17737;52.586;13.284;2023-09-19T06:55:27;100452.94;;;19.04;100.00
31082;BME280;17737;52.586;13.284;2023-09-19T06:57:58;100450.25;;;19.16;100.00
31082;BME280;17737;52.586;13.284;2023-09-19T07:00:26;100448.81;;;19.31;100.00
31082;BME280;17737;52.586;13.284;2023-09-19T07:02:56;100461.78;;;19.36;100.00
31082;BME280;17737;52.586;13.284;2023-09-19T07:05:27;100468.13;;;19.00;100.00
31082;BME280;17737;52.586;13.284;2023-09-19T07:07:55;100471.53;;;18.95;100.00
31082;BME280;17737;52.586;13.284;2023-09-19T07:10:27;100480.94;;;18.99;100.00
31082;BME280;17737;52.586;13.284;2023-09-19T07:12:56;100474.63;;;18.99;100.00
31082;BME280;17737;52.586;13.284;2023-09-19T07:15:25;100489.06;;;18.88;100.00
31082;BME280;17737;52.586;13.284;2023-09-19T07:17:54;100489.50;;;18.85;100.00
31082;BME280;17737;52.586;13.284;2023-09-19T07:20:24;100501.03;;;18.87;100.00
31082;BME280;17737;52.586;13.284;2023-09-19T07:22:53;100499.66;;;18.60;100.00
31082;BME280;17737;52.586;13.284;2023-09-19T07:25:22;100513.47;;;18.65;100.00
31082;BME280;17737;52.586;13.284;2023-09-19T07:27:52;100508.47;;;18.80;100.00
31082;BME280;17737;52.586;13.284;2023-09-19T07:30:22;100509.69;;;18.66;100.00
31082;BME280;17737;52.586;13.284;2023-09-19T07:32:51;100504.00;;;18.67;100.00
31082;BME280;17737;52.586;13.284;2023-09-19T07:35:20;100505.13;;;18.60;100.00
31082;BME280;17737;52.586;13.284;2023-09-19T07:37:48;100492.81;;;18.51;100.00
31082;BME280;17737;52.586;13.284;2023-09-19T07:40:19;100501.28;;;18.67;100.00
31082;BME280;17737;52.586;13.284;2023-09-19T07:42:48;100502.19;;;18.79;100.00
31082;BME280;17737;52.586;13.284;2023-09-19T07:45:18;100514.91;;;18.85;100.00
31082;BME280;17737;52.586;13.284;2023-09-19T07:47:47;100516.03;;;18.60;100.00
31082;BME280;17737;52.586;13.284;2023-09-19T07:50:17;100535.06;;;18.48;100.00
31082;BME280;17737;52.586;13.284;2023-09-19T07:52:46;100519.69;;;18.54;100.00
31082;BME280;17737;52.586;13.284;2023-09-19T07:55:17;100531.56;;;18.59;100.00
31082;BME280;17737;52.586;13.284;2023-09-19T07:57:46;100525.44;;;18.64;100.00
31082;BME280;17737;52.586;13.284;2023-09-19T08:00:15;100525.69;;;18.62;100.00
31082;BME280;17737;52.586;13.284;2023-09-19T08:02:45;100529.53;;;18.55;100.00
31082;BME280;17737;52.586;13.284;2023-09-19T08:05:22;100537.72;;;18.55;100.00
31082;BME280;17737;52.586;13.284;2023-09-19T08:07:51;100527.31;;;18.39;100.00
31082;BME280;17737;52.586;13.284;2023-09-19T08:10:19;100522.28;;;18.42;100.00
31082;BME280;17737;52.586;13.284;2023-09-19T08:12:48;100524.25;;;18.35;100.00
31082;BME280;17737;52.586;13.284;2023-09-19T08:15:22;100526.81;;;18.30;100.00
31082;BME280;17737;52.586;13.284;2023-09-19T08:17:52;100528.38;;;18.20;100.00
31082;BME280;17737;52.586;13.284;2023-09-19T08:20:20;100536.72;;;18.25;100.00
31082;BME280;17737;52.586;13.284;2023-09-19T08:22:49;100539.53;;;18.12;100.00
31082;BME280;17737;52.586;13.284;2023-09-19T08:25:19;100541.50;;;18.05;100.00
31082;BME280;17737;52.586;13.284;2023-09-19T08:27:48;100534.47;;;18.15;100.00
31082;BME280;17737;52.586;13.284;2023-09-19T08:30:20;100552.06;;;18.19;100.00
31082;BME280;17737;52.586;13.284;2023-09-19T08:32:56;100553.41;;;18.35;100.00
31082;BME280;17737;52.586;13.284;2023-09-19T08:35:26;100549.00;;;18.40;100.00
31082;BME280;17737;52.586;13.284;2023-09-19T08:37:55;100557.34;;;18.39;100.00
31082;BME280;17737;52.586;13.284;2023-09-19T08:40:23;100545.34;;;18.22;100.00
31082;BME280;17737;52.586;13.284;2023-09-19T08:42:57;100547.16;;;18.28;100.00
31082;BME280;17737;52.586;13.284;2023-09-19T08:45:25;100553.59;;;18.40;100.00
31082;BME280;17737;52.586;13.284;2023-09-19T08:48:06;100558.19;;;18.39;100.00
31082;BME280;17737;52.586;13.284;2023-09-19T08:50:51;100547.25;;;18.39;100.00
31082;BME280;17737;52.586;13.284;2023-09-19T08:53:26;100550.41;;;18.67;100.00
31082;BME280;17737;52.586;13.284;2023-09-19T08:55:59;100554.56;;;18.70;100.00
31082;BME280;17737;52.586;13.284;2023-09-19T08:58:34;100565.31;;;18.65;100.00
31082;BME280;17737;52.586;13.284;2023-09-19T09:01:11;100557.97;;;18.65;100.00
31082;BME280;17737;52.586;13.284;2023-09-19T09:03:44;100573.16;;;18.79;100.00
31082;BME280;17737;52.586;13.284;2023-09-19T09:06:15;100563.31;;;19.15;100.00
31082;BME280;17737;52.586;13.284;2023-09-19T09:08:44;100569.59;;;18.97;100.00
31082;BME280;17737;52.586;13.284;2023-09-19T09:11:15;100579.47;;;18.98;100.00
31082;BME280;17737;52.586;13.284;2023-09-19T09:13:44;100580.50;;;18.97;100.00
31082;BME280;17737;52.586;13.284;2023-09-19T09:16:13;100580.25;;;19.05;100.00
31082;BME280;17737;52.586;13.284;2023-09-19T09:18:45;100582.22;;;19.34;100.00
31082;BME280;17737;52.586;13.284;2023-09-19T09:21:19;100566.19;;;19.38;100.00
31082;BME280;17737;52.586;13.284;2023-09-19T09:23:48;100565.50;;;18.88;100.00
31082;BME280;17737;52.586;13.284;2023-09-19T09:26:40;100565.59;;;18.99;100.00
31082;BME280;17737;52.586;13.284;2023-09-19T09:29:10;100567.94;;;19.50;100.00
31082;BME280;17737;52.586;13.284;2023-09-19T09:31:44;100575.22;;;19.38;100.00
31082;BME280;17737;52.586;13.284;2023-09-19T09:34:15;100567.16;;;18.89;100.00
31082;BME280;17737;52.586;13.284;2023-09-19T09:36:48;100564.38;;;18.95;100.00
31082;BME280;17737;52.586;13.284;2023-09-19T09:39:30;100563.38;;;18.90;100.00
31082;BME280;17737;52.586;13.284;2023-09-19T09:41:58;100568.78;;;19.15;100.00
31082;BME280;17737;52.586;13.284;2023-09-19T09:44:27;100569.16;;;19.18;100.00
31082;BME280;17737;52.586;13.284;2023-09-19T09:46:58;100570.50;;;18.91;100.00
31082;BME280;17737;52.586;13.284;2023-09-19T09:49:48;100581.59;;;18.96;100.00
31082;BME280;17737;52.586;13.284;2023-09-19T09:52:44;100580.97;;;19.12;100.00
31082;BME280;17737;52.586;13.284;2023-09-19T09:55:13;100578.38;;;19.17;100.00
31082;BME280;17737;52.586;13.284;2023-09-19T09:57:41;100572.78;;;19.48;100.00
31082;BME280;17737;52.586;13.284;2023-09-19T10:00:11;100579.53;;;19.64;100.00
31082;BME280;17737;52.586;13.284;2023-09-19T10:02:47;100572.66;;;19.43;100.00
31082;BME280;17737;52.586;13.284;2023-09-19T10:05:19;100579.09;;;19.49;100.00
31082;BME280;17737;52.586;13.284;2023-09-19T10:08:10;100582.03;;;19.95;100.00
31082;BME280;17737;52.586;13.284;2023-09-19T10:10:42;100577.19;;;20.08;100.00
31082;BME280;17737;52.586;13.284;2023-09-19T10:13:21;100571.75;;;19.90;100.00
31082;BME280;17737;52.586;13.284;2023-09-19T10:15:54;100572.00;;;19.89;100.00
31082;BME280;17737;52.586;13.284;2023-09-19T10:18:26;100567.00;;;19.86;100.00
31082;BME280;17737;52.586;13.284;2023-09-19T10:20:57;100574.00;;;19.82;100.00
31082;BME280;17737;52.586;13.284;2023-09-19T10:23:36;100572.44;;;19.74;100.00
31082;BME280;17737;52.586;13.284;2023-09-19T10:26:11;100566.94;;;19.63;100.00
31082;BME280;17737;52.586;13.284;2023-09-19T10:28:46;100573.22;;;19.63;100.00
31082;BME280;17737;52.586;13.284;2023-09-19T10:31:19;100582.16;;;19.70;100.00
31082;BME280;17737;52.586;13.284;2023-09-19T10:33:51;100564.09;;;19.69;100.00
31082;BME280;17737;52.586;13.284;2023-09-19T10:36:24;100575.59;;;19.42;100.00
31082;BME280;17737;52.586;13.284;2023-09-19T10:38:56;100572.50;;;19.38;100.00
31082;BME280;17737;52.586;13.284;2023-09-19T10:41:29;100572.88;;;19.42;100.00
31082;BME280;17737;52.586;13.284;2023-09-19T10:44:02;100575.56;;;19.30;100.00
31082;BME280;17737;52.586;13.284;2023-09-19T10:46:32;100572.03;;;19.59;100.00
31082;BME280;17737;52.586;13.284;2023-09-19T10:49:01;100582.81;;;19.84;100.00
31082;BME280;17737;52.586;13.284;2023-09-19T10:51:33;100577.72;;;20.29;100.00
31082;BME280;17737;52.586;13.284;2023-09-19T10:54:11;100575.13;;;20.34;100.00
31082;BME280;17737;52.586;13.284;2023-09-19T10:56:46;100582.59;;;20.38;100.00
31082;BME280;17737;52.586;13.284;2023-09-19T10:59:17;100583.31;;;20.22;100.00
31082;BME280;17737;52.586;13.284;2023-09-19T11:01:48;100586.53;;;20.31;100.00
31082;BME280;17737;52.586;13.284;2023-09-19T11:04:24;100577.25;;;20.43;100.00
31082;BME280;17737;52.586;13.284;2023-09-19T11:07:06;100576.88;;;20.28;100.00
31082;BME280;17737;52.586;13.284;2023-09-19T11:09:46;100572.13;;;20.35;100.00
31082;BME280;17737;52.586;13.284;2023-09-19T11:12:49;100580.28;;;20.53;100.00
31082;BME280;17737;52.586;13.284;2023-09-19T11:18:55;100583.56;;;20.44;100.00
31082;BME280;17737;52.586;13.284;2023-09-19T11:21:52;100589.41;;;20.59;100.00
31082;BME280;17737;52.586;13.284;2023-09-19T11:24:32;100588.56;;;20.47;100.00
31082;BME280;17737;52.586;13.284;2023-09-19T11:27:10;100596.94;;;20.63;100.00
31082;BME280;17737;52.586;13.284;2023-09-19T11:29:41;100592.88;;;20.66;100.00
31082;BME280;17737;52.586;13.284;2023-09-19T11:32:09;100597.31;;;20.67;100.00
31082;BME280;17737;52.586;13.284;2023-09-19T11:34:47;100592.25;;;20.41;100.00
31082;BME280;17737;52.586;13.284;2023-09-19T11:40:44;100593.34;;;20.10;100.00
31082;BME280;17737;52.586;13.284;2023-09-19T11:43:29;100593.19;;;20.35;100.00
31082;BME280;17737;52.586;13.284;2023-09-19T11:46:05;100593.66;;;20.32;100.00
31082;BME280;17737;52.586;13.284;2023-09-19T11:48:40;100594.16;;;20.52;100.00
31082;BME280;17737;52.586;13.284;2023-09-19T11:51:18;100609.28;;;20.31;100.00
31082;BME280;17737;52.586;13.284;2023-09-19T11:53:55;100592.50;;;20.62;100.00
31082;BME280;17737;52.586;13.284;2023-09-19T11:56:27;100600.50;;;20.87;100.00
31082;BME280;17737;52.586;13.284;2023-09-19T11:59:00;100600.38;;;20.59;100.00
31082;BME280;17737;52.586;13.284;2023-09-19T12:01:31;100600.59;;;20.69;100.00
31082;BME280;17737;52.586;13.284;2023-09-19T12:04:02;100593.34;;;20.74;100.00
31082;BME280;17737;52.586;13.284;2023-09-19T12:06:33;100600.00;;;20.55;100.00
31082;BME280;17737;52.586;13.284;2023-09-19T12:09:03;100608.06;;;20.27;100.00
31082;BME280;17737;52.586;13.284;2023-09-19T12:11:41;100611.69;;;20.62;100.00
31082;BME280;17737;52.586;13.284;2023-09-19T12:14:11;100599.78;;;20.80;100.00
31082;BME280;17737;52.586;13.284;2023-09-19T12:16:51;100602.53;;;20.80;100.00
31082;BME280;17737;52.586;13.284;2023-09-19T12:19:23;100600.84;;;20.44;100.00
31082;BME280;17737;52.586;13.284;2023-09-19T12:21:55;100599.25;;;20.25;100.00
31082;BME280;17737;52.586;13.284;2023-09-19T12:24:26;100604.13;;;20.35;100.00
31082;BME280;17737;52.586;13.284;2023-09-19T12:27:02;100618.34;;;20.55;100.00
31082;BME280;17737;52.586;13.284;2023-09-19T12:29:42;100607.59;;;20.30;100.00
31082;BME280;17737;52.586;13.284;2023-09-19T12:32:11;100611.66;;;20.51;100.00
31082;BME280;17737;52.586;13.284;2023-09-19T12:34:50;100598.09;;;20.44;100.00
31082;BME280;17737;52.586;13.284;2023-09-19T12:37:21;100607.59;;;20.42;100.00
31082;BME280;17737;52.586;13.284;2023-09-19T12:40:03;100597.84;;;20.46;100.00
31082;BME280;17737;52.586;13.284;2023-09-19T12:42:44;100602.72;;;20.44;100.00
31082;BME280;17737;52.586;13.284;2023-09-19T12:45:14;100594.88;;;20.59;100.00
31082;BME280;17737;52.586;13.284;2023-09-19T12:51:00;100602.06;;;20.71;100.00
31082;BME280;17737;52.586;13.284;2023-09-19T12:53:34;100602.41;;;20.86;100.00
31082;BME280;17737;52.586;13.284;2023-09-19T12:56:07;100607.53;;;20.60;100.00
31082;BME280;17737;52.586;13.284;2023-09-19T12:58:50;100615.63;;;20.78;100.00
31082;BME280;17737;52.586;13.284;2023-09-19T13:01:21;100609.19;;;20.61;100.00
31082;BME280;17737;52.586;13.284;2023-09-19T13:04:15;100614.91;;;20.71;100.00
31082;BME280;17737;52.586;13.284;2023-09-19T13:06:52;100608.69;;;20.52;100.00